Station: Sunshine Coast Airport  

  Atmospheric Gas Attenuation - ITU Rec 676-11   ----------------- dB/100km -----------------
Date Time Temp RH % AH g/m3 Dew Point Wind Direction Speed kph Gust kph Barometer mB Rainfall Since 9am 24GHz 47GHz 76GHz 122GHz 134GHz 241GHz
06/05 09:00 23.6 76 16.16 19.1 19 24 1017.6 0 35.0 35.6 65.7 173.5 186.5 647.2
06/05 08:50 23.8 78 16.78 19.7 19 22 1017.7 0.2 36.3 36.6 68.3 180.5 195.1 677.4
06/05 08:40 23.7 79 16.9 19.8 17 19 1017.6 0.2 36.6 36.9 68.9 182.2 197.2 684.5
06/05 08:30 22.9 79 16.14 19.1 20 24 1017.5 0.2 35.1 35.8 66.2 174.8 187.9 652.1
06/05 08:20 22.7 80 16.16 19.1 19 24 1017.6 0.2 35.1 36.0 66.5 175.5 188.7 654.9
06/05 08:10 22.5 81 16.18 19.1 20 24 1017.4 0.2 35.2 36.1 66.7 176.2 189.5 657.5
06/05 08:00 22.1 82 16.01 18.9 19 22 1017.3 0.2 34.8 35.9 66.3 175.1 187.9 652.1
06/05 07:50 21.8 83 15.92 18.8 19 20 1017.3 0.2 34.7 35.9 66.1 174.7 187.3 650.0
06/05 07:40 21.6 83 15.74 18.6 17 19 1017.1 0.2 34.3 35.6 65.5 172.9 185.1 642.2
06/05 07:30 21.5 85 16.03 18.9 17 24 1016.9 0.2 34.9 36.2 66.9 176.6 189.7 658.1
06/05 07:20 21.2 86 15.94 18.8 19 22 1017 0.2 34.8 36.2 66.7 176.2 189.1 656.1
06/05 07:10 20.9 89 16.21 19 19 20 1016.9 0.2 35.4 36.8 68.2 180.3 194.0 672.9
06/05 07:00 20.5 91 16.19 19 13 19 1016.8 0.2 35.4 36.9 68.5 180.9 194.7 675.3
06/05 06:50 19.8 92 15.71 18.5 11 13 1016.9 0.2 34.4 36.4 66.9 176.6 189.1 656.0
06/05 06:40 19.3 92 15.26 18 11 11 1016.8 0.2 33.5 35.7 65.2 172.2 183.5 636.3
06/05 06:30 19 92 14.99 17.7 9 11 1016.6 0.2 32.9 35.3 64.2 169.5 180.1 624.4
06/05 06:20 19.1 91 14.92 17.6 9 11 1016.6 0.2 32.8 35.2 63.8 168.4 178.8 619.9
06/05 06:10 19.1 90 14.75 17.4 9 9 1016.5 0.2 32.4 34.8 63.0 166.3 176.2 611.0
06/05 06:00 19.5 90 15.1 17.8 11 15 1016.3 0.2 33.1 35.3 64.3 169.7 180.5 626.0
06/05 05:50 19.9 90 15.46 18.2 11 13 1016.4 0.2 33.9 35.8 65.6 173.2 185.0 641.6
06/05 05:40 20 91 15.73 18.5 15 17 1016.4 0.2 34.4 36.3 66.8 176.3 188.9 655.1
06/05 05:30 20.1 91 15.82 18.6 15 17 1016.2 0.2 34.6 36.4 67.1 177.2 190.0 658.9
06/05 05:20 20.1 91 15.82 18.6 13 17 1016.3 0.2 34.6 36.4 67.1 177.2 190.0 658.9
06/05 05:10 20.1 91 15.82 18.6 17 17 1016.2 0.2 34.6 36.4 67.1 177.2 190.0 658.9
06/05 05:00 20 92 15.9 18.7 15 22 1016.1 0.2 34.8 36.6 67.5 178.4 191.4 664.0
06/05 04:50 19.8 93 15.88 18.6 17 19 1016.1 0.2 34.8 36.6 67.6 178.6 191.6 664.6
06/05 04:40 19.5 94 15.77 18.5 13 15 1016.1 0.2 34.6 36.6 67.4 178.0 190.7 661.4
06/05 04:30 19.1 93 15.24 17.9 11 13 1016.1 0.2 33.5 35.7 65.2 172.3 183.6 636.6
06/05 04:20 19.1 93 15.24 17.9 11 11 1016.1 0.2 33.5 35.7 65.2 172.3 183.6 636.6
06/05 04:10 19.1 93 15.24 17.9 11 11 1016.1 0.2 33.5 35.7 65.2 172.3 183.6 636.6
06/05 04:00 19.1 93 15.24 17.9 9 11 1016.1 0.2 33.5 35.7 65.2 172.3 183.6 636.6
06/05 03:50 19.1 93 15.24 17.9 7 9 1016.1 0.2 33.5 35.7 65.2 172.3 183.6 636.6
06/05 03:40 19.2 93 15.33 18 9 11 1016.1 0.2 33.7 35.9 65.6 173.2 184.7 640.5
06/05 03:30 19 93 15.15 17.8 7 9 1016 0.2 33.3 35.6 64.9 171.4 182.5 632.6
06/05 03:20 19.2 93 15.33 18 7 7 1016.2 0.2 33.7 35.9 65.6 173.2 184.7 640.6
06/05 03:10 19.2 93 15.33 18 11 11 1016.2 0.2 33.7 35.9 65.6 173.2 184.7 640.6
06/05 03:00 19 93 15.15 17.8 9 11 1016.3 0.2 33.3 35.6 64.9 171.4 182.5 632.8
06/05 02:50 19.2 93 15.33 18 6 7 1016.2 0.2 33.7 35.9 65.6 173.2 184.7 640.6
06/05 02:40 19.3 93 15.42 18.1 9 9 1016.2 0.2 33.8 36.0 65.9 174.1 185.9 644.5
06/05 02:30 19.2 93 15.33 18 9 11 1016.3 0.2 33.7 35.9 65.6 173.2 184.8 640.6
06/05 02:20 19.4 93 15.52 18.2 9 9 1016.5 0.2 34.0 36.1 66.3 175.1 187.2 649.1
06/05 02:10 19.6 93 15.7 18.4 9 11 1016.4 0.2 34.4 36.4 67.0 176.9 189.4 656.9
06/05 02:00 19.6 93 15.7 18.4 11 15 1016.4 0.2 34.4 36.4 67.0 176.9 189.4 656.9
06/05 01:50 19.5 93 15.61 18.3 13 15 1016.6 0.2 34.2 36.3 66.7 176.0 188.3 653.1
06/05 01:40 19.4 93 15.52 18.2 7 7 1016.7 0.2 34.0 36.2 66.3 175.2 187.2 649.2
06/05 01:30 19.5 93 15.61 18.3 9 11 1016.7 0.2 34.2 36.3 66.7 176.1 188.3 653.1
06/05 01:20 19.6 93 15.7 18.4 9 11 1016.8 0.2 34.4 36.4 67.0 177.0 189.5 657.1
06/05 01:10 19.5 93 15.61 18.3 7 9 1016.6 0.2 34.2 36.3 66.7 176.0 188.3 653.1
06/05 01:00 19.5 93 15.61 18.3 7 9 1016.7 0.2 34.2 36.3 66.7 176.1 188.3 653.1
06/05 00:50 19.5 93 15.61 18.3 7 9 1017.1 0.2 34.2 36.3 66.7 176.1 188.4 653.3
06/05 00:40 19.5 93 15.61 18.3 7 7 1017 0.2 34.2 36.3 66.7 176.1 188.4 653.3
06/05 00:30 19.7 93 15.79 18.5 9 11 1017 0.2 34.6 36.5 67.3 177.9 190.6 661.1
06/05 00:20 19.8 93 15.88 18.6 7 9 1017.1 0.2 34.8 36.7 67.7 178.8 191.8 665.1
06/05 00:10 19.6 92 15.53 18.3 7 7 1017.3 0.2 34.0 36.1 66.2 174.9 186.9 648.3
06/05 00:00 19.6 92 15.53 18.3 9 11 1017.4 0.2 34.0 36.1 66.2 174.9 187.0 648.3
05/05 23:50 19.7 92 15.62 18.4 7 9 1017.6 0.2 34.2 36.3 66.6 175.8 188.1 652.4
05/05 23:40 19.9 92 15.81 18.6 9 9 1017.4 0.2 34.6 36.5 67.3 177.7 190.5 660.6
05/05 23:30 19.8 92 15.71 18.5 7 11 1017.3 0.2 34.4 36.4 66.9 176.7 189.2 656.1
05/05 23:20 19.6 92 15.53 18.3 6 7 1017.8 0.2 34.0 36.1 66.3 175.0 187.0 648.5
05/05 23:10 19.6 92 15.53 18.3 6 6 1017.5 0.2 34.0 36.1 66.2 174.9 187.0 648.4
05/05 23:00 19.6 92 15.53 18.3 6 7 1017.4 0.2 34.0 36.1 66.2 174.9 187.0 648.3
05/05 22:50 19.6 91 15.36 18.1 6 6 1017.6 0.2 33.7 35.8 65.5 172.9 184.4 639.4
05/05 22:40 19.9 91 15.63 18.4 6 7 1017.5 0.2 34.2 36.2 66.4 175.5 187.7 651.1
05/05 22:30 20 91 15.73 18.5 4 7 1017.2 0.2 34.4 36.3 66.8 176.5 189.0 655.4
05/05 22:20 20 91 15.73 18.5 0 0 1017.4 0.2 34.4 36.3 66.8 176.5 189.0 655.5
05/05 22:10 20.1 91 15.82 18.6 0 0 1017.3 0.2 34.6 36.4 67.1 177.4 190.1 659.4
05/05 22:00 20.2 91 15.91 18.7 0 2 1017.2 0.2 34.8 36.6 67.5 178.2 191.2 663.3
05/05 21:50 20.1 91 15.82 18.6 2 4 1017.5 0.2 34.6 36.5 67.2 177.4 190.1 659.5
05/05 21:40 20.1 91 15.82 18.6 7 7 1017.6 0.2 34.6 36.5 67.2 177.4 190.1 659.5
05/05 21:30 20.1 90 15.64 18.4 7 9 1017.3 0.2 34.2 36.1 66.3 175.1 187.4 649.8
05/05 21:20 20.4 90 15.92 18.7 6 6 1017.1 0.2 34.8 36.5 67.3 177.9 190.8 662.0
05/05 21:10 20.5 90 16.01 18.8 6 6 1017 0.2 35.0 36.6 67.7 178.7 191.9 665.8
05/05 21:00 20.3 90 15.83 18.6 6 7 1017.3 0.2 34.6 36.4 67.0 177.0 189.8 658.2
05/05 20:50 20.3 89 15.65 18.4 6 7 1017.5 0.2 34.2 36.1 66.2 174.8 187.0 648.8
05/05 20:40 20.7 90 16.2 19 7 9 1017.4 0.2 35.4 36.9 68.4 180.7 194.4 674.4
05/05 20:30 20.6 90 16.11 18.9 4 7 1017.2 0.2 35.2 36.8 68.1 179.8 193.2 670.4
05/05 20:20 20.7 89 16.02 18.8 7 9 1017.4 0.2 35.0 36.6 67.6 178.4 191.6 664.8
05/05 20:10 20.7 89 16.02 18.8 15 19 1017.4 0.2 35.0 36.6 67.6 178.4 191.6 664.8
05/05 20:00 20.9 88 16.03 18.8 11 11 1017.1 0.2 35.0 36.5 67.4 178.1 191.2 663.4
05/05 19:50 21.1 87 16.03 18.9 11 11 1017.1 0.2 35.0 36.4 67.2 177.6 190.7 661.7
05/05 19:40 21.3 87 16.22 19 11 13 1017 0.2 35.4 36.7 67.9 179.4 193.1 669.9
05/05 19:30 21.4 85 15.93 18.8 13 13 1016.7 0.2 34.7 36.1 66.5 175.6 188.4 653.7
05/05 19:20 22.2 81 15.9 18.8 9 11 1016.8 0.2 34.6 35.7 65.7 173.4 186.0 645.3
05/05 19:10 22.6 81 16.27 19.2 9 11 1016.7 0.2 35.4 36.2 67.0 177.0 190.5 661.0
05/05 19:00 22.6 81 16.27 19.2 11 13 1016.2 0.2 35.4 36.2 67.0 176.9 190.4 660.8
05/05 18:50 22.5 81 16.18 19.1 11 11 1016.5 0.2 35.2 36.0 66.7 176.1 189.4 657.1
05/05 18:40 22.7 81 16.36 19.3 7 9 1016.6 0.2 35.5 36.3 67.3 177.8 191.6 664.8
05/05 18:30 22.7 81 16.36 19.3 9 13 1016.3 0.2 35.5 36.3 67.3 177.8 191.5 664.6
05/05 18:20 22.4 81 16.09 19 9 11 1016.5 0.2 35.0 35.9 66.3 175.2 188.3 653.3
05/05 18:10 22.5 81 16.18 19.1 6 7 1016.4 0.2 35.2 36.0 66.6 176.1 189.3 657.1
05/05 18:00 22.6 81 16.27 19.2 7 13 1016.2 0.2 35.4 36.2 67.0 176.9 190.4 660.8
05/05 17:50 22.6 82 16.47 19.4 9 11 1015.9 0.2 35.8 36.5 67.9 179.3 193.4 671.1
05/05 17:40 22.7 82 16.57 19.5 7 7 1016 0.2 36.0 36.7 68.2 180.3 194.6 675.4
05/05 17:30 22.7 82 16.57 19.5 9 13 1015.6 0.2 36.0 36.6 68.2 180.2 194.6 675.2
05/05 17:20 22.7 82 16.57 19.5 9 9 1015.8 0.2 36.0 36.7 68.2 180.3 194.6 675.3
05/05 17:10 22.8 81 16.46 19.4 9 11 1015.9 0.2 35.8 36.4 67.6 178.7 192.7 668.8
05/05 17:00 22.9 81 16.55 19.5 11 15 1015.7 0.2 35.9 36.5 67.9 179.5 193.8 672.5
05/05 16:50 23 80 16.44 19.4 9 11 1015.6 0.2 35.7 36.3 67.3 178.0 191.8 665.8
05/05 16:40 23.2 80 16.63 19.6 11 15 1015.7 0.2 36.1 36.5 68.0 179.8 194.2 674.0
05/05 16:30 23.2 80 16.63 19.6 15 19 1015.4 0.2 36.1 36.5 68.0 179.8 194.1 673.8

Last Refresh: 06-May-2026 08:41:28

Bureau of Meteorology